createdAt,value
2018-06-02T00:01:16.435Z,99.90
2018-06-02T00:03:43.779Z,99.90
2018-06-02T00:06:10.267Z,99.90
2018-06-02T00:08:36.830Z,99.90
2018-06-02T00:11:03.325Z,99.90
2018-06-02T00:13:29.719Z,99.90
2018-06-02T00:15:56.159Z,99.90
2018-06-02T00:18:22.586Z,99.90
2018-06-02T00:20:49.011Z,99.90
2018-06-02T00:23:21.497Z,99.90
2018-06-02T00:25:48.716Z,99.90
2018-06-02T00:28:15.191Z,99.90
2018-06-02T00:30:41.632Z,99.90
2018-06-02T00:33:08.069Z,99.90
2018-06-02T00:35:34.483Z,99.90
2018-06-02T00:38:01.651Z,99.90
2018-06-02T00:40:28.113Z,99.90
2018-06-02T00:42:55.296Z,99.90
2018-06-02T00:45:22.482Z,99.90
2018-06-02T00:47:48.894Z,99.90
2018-06-02T00:50:15.340Z,99.90
2018-06-02T00:52:41.741Z,99.90
2018-06-02T00:55:08.914Z,99.90
2018-06-02T00:57:35.471Z,99.90
2018-06-02T01:00:01.917Z,99.90
2018-06-02T01:02:28.433Z,99.90
2018-06-02T01:04:55.468Z,99.90
2018-06-02T01:07:21.904Z,99.90
2018-06-02T01:09:49.092Z,99.90
2018-06-02T01:12:15.574Z,99.90
2018-06-02T01:14:42.478Z,99.90
2018-06-02T01:17:09.664Z,99.90
2018-06-02T01:19:36.819Z,99.90
2018-06-02T01:22:03.245Z,99.90
2018-06-02T01:24:29.765Z,99.90
2018-06-02T01:26:56.200Z,99.90
2018-06-02T01:29:22.606Z,99.90
2018-06-02T01:31:49.073Z,99.90
2018-06-02T01:34:15.503Z,99.90
2018-06-02T01:36:41.938Z,99.90
2018-06-02T01:39:09.217Z,99.90
2018-06-02T01:41:36.361Z,99.90
2018-06-02T01:44:02.810Z,99.90
2018-06-02T01:46:29.221Z,99.90
2018-06-02T01:48:55.760Z,99.90
2018-06-02T01:51:22.920Z,99.90
2018-06-02T01:53:50.084Z,99.90
2018-06-02T01:56:17.394Z,99.90
2018-06-02T01:58:43.866Z,99.90
2018-06-02T02:01:11.113Z,99.90
2018-06-02T02:03:37.547Z,99.90
2018-06-02T02:06:04.125Z,99.90
2018-06-02T02:08:31.307Z,99.90
2018-06-02T02:10:57.860Z,99.90
2018-06-02T02:13:25.134Z,99.90
2018-06-02T02:15:51.600Z,99.90
2018-06-02T02:18:18.075Z,99.90
2018-06-02T02:20:45.530Z,99.90
2018-06-02T02:23:12.735Z,99.90
2018-06-02T02:25:39.916Z,99.90
2018-06-02T02:28:06.351Z,99.90
2018-06-02T02:30:33.537Z,99.90
2018-06-02T02:33:00.734Z,99.90
2018-06-02T02:35:27.160Z,99.90
2018-06-02T02:37:53.606Z,99.90
2018-06-02T02:40:20.058Z,99.90
2018-06-02T02:42:46.452Z,99.90
2018-06-02T02:45:12.945Z,99.90
2018-06-02T02:47:39.389Z,99.90
2018-06-02T02:50:05.852Z,99.90
2018-06-02T02:52:32.305Z,99.90
2018-06-02T02:54:59.470Z,99.90
2018-06-02T02:57:25.865Z,99.90
2018-06-02T02:59:52.258Z,99.90
2018-06-02T03:02:18.760Z,99.90
2018-06-02T03:06:29.690Z,99.90
2018-06-02T03:08:59.569Z,99.90
2018-06-02T03:11:26.726Z,99.90
2018-06-02T03:13:53.163Z,99.90
2018-06-02T03:16:19.582Z,99.90
2018-06-02T03:18:46.005Z,99.90
2018-06-02T03:21:12.420Z,99.90
2018-06-02T03:23:38.924Z,99.90
2018-06-02T03:26:06.116Z,99.90
2018-06-02T03:28:33.252Z,99.90
2018-06-02T03:31:00.541Z,99.90
2018-06-02T03:33:27.670Z,99.90
2018-06-02T03:35:54.621Z,99.90
2018-06-02T03:38:21.099Z,99.90
2018-06-02T03:40:47.602Z,99.90
2018-06-02T03:43:14.044Z,99.90
2018-06-02T03:45:41.206Z,99.90
2018-06-02T03:48:10.377Z,99.90
2018-06-02T03:50:36.898Z,99.90
2018-06-02T03:53:04.175Z,99.90
2018-06-02T03:55:31.340Z,99.90
2018-06-02T03:57:58.517Z,99.90
2018-06-02T04:00:25.679Z,99.90
2018-06-02T04:02:52.857Z,99.90
2018-06-02T04:05:20.137Z,99.90
2018-06-02T04:07:47.414Z,99.90
2018-06-02T04:10:13.855Z,99.90
2018-06-02T04:12:41.090Z,99.90
2018-06-02T04:15:07.601Z,99.90
2018-06-02T04:17:34.739Z,99.00
2018-06-02T04:20:01.249Z,99.00
2018-06-02T04:22:27.675Z,96.80
2018-06-02T04:24:54.245Z,94.90
2018-06-02T04:27:21.456Z,90.70
2018-06-02T04:29:47.932Z,90.70
2018-06-02T04:32:15.093Z,84.00
2018-06-02T04:34:41.560Z,83.90
2018-06-02T04:37:08.060Z,80.10
2018-06-02T04:39:35.339Z,72.80
2018-06-02T04:42:02.493Z,68.90
2018-06-02T04:44:29.645Z,65.30
2018-06-02T04:46:56.052Z,65.30
2018-06-02T04:49:22.596Z,62.20
2018-06-02T04:51:49.642Z,60.30
2018-06-02T04:54:16.811Z,57.10
2018-06-02T04:56:44.011Z,55.60
2018-06-02T04:59:10.469Z,55.60
2018-06-02T05:01:36.909Z,54.50
2018-06-02T05:04:04.093Z,52.10
2018-06-02T05:06:31.328Z,51.00
2018-06-02T05:08:57.828Z,51.00
2018-06-02T05:11:24.386Z,50.50
2018-06-02T05:13:51.573Z,48.90
2018-06-02T05:16:17.996Z,49.00
2018-06-02T05:18:44.417Z,49.40
2018-06-02T05:21:10.928Z,48.80
2018-06-02T05:23:38.094Z,47.90
2018-06-02T05:26:05.324Z,47.90
2018-06-02T05:28:31.783Z,47.90
2018-06-02T05:30:58.230Z,47.90
2018-06-02T05:33:24.662Z,47.40
2018-06-02T05:35:51.263Z,46.80
2018-06-02T05:38:17.720Z,46.50
2018-06-02T05:40:44.215Z,45.90
2018-06-02T05:43:11.489Z,44.30
2018-06-02T05:45:38.676Z,43.60
2018-06-02T05:48:05.166Z,43.60
2018-06-02T05:50:31.782Z,42.50
2018-06-02T05:52:59.012Z,41.10
2018-06-02T05:55:26.251Z,40.10
2018-06-02T05:57:52.731Z,40.10
2018-06-02T06:00:19.241Z,39.50
2018-06-02T06:02:45.682Z,38.70
2018-06-02T06:05:12.900Z,37.00
2018-06-02T06:07:39.332Z,37.00
2018-06-02T06:10:05.767Z,36.50
2018-06-02T06:12:33.058Z,37.00
2018-06-02T06:15:00.209Z,37.00
2018-06-02T06:17:26.892Z,37.00
2018-06-02T06:19:53.341Z,36.60
2018-06-02T06:22:20.491Z,36.00
2018-06-02T06:24:46.977Z,36.00
2018-06-02T06:27:14.133Z,35.00
2018-06-02T06:29:41.298Z,35.70
2018-06-02T06:32:08.492Z,35.30
2018-06-02T06:34:35.666Z,36.00
2018-06-02T06:37:02.851Z,36.00
2018-06-02T06:39:29.309Z,36.00
2018-06-02T06:41:55.755Z,36.50
2018-06-02T06:44:22.899Z,38.50
2018-06-02T06:46:50.094Z,42.70
2018-06-02T06:49:17.251Z,44.40
2018-06-02T06:51:44.444Z,46.00
2018-06-02T06:54:10.906Z,45.80
2018-06-02T06:56:37.329Z,46.00
2018-06-02T06:59:03.784Z,46.40
2018-06-02T07:01:30.369Z,48.20
2018-06-02T07:03:56.827Z,48.40
2018-06-02T07:06:23.883Z,48.30
2018-06-02T07:08:51.120Z,48.70
2018-06-02T07:11:18.015Z,48.70
2018-06-02T07:13:44.699Z,48.60
2018-06-02T07:16:11.972Z,51.40
2018-06-02T07:18:38.487Z,51.40
2018-06-02T07:21:05.586Z,52.80
2018-06-02T07:23:32.005Z,53.70
2018-06-02T07:25:58.445Z,54.10
2018-06-02T07:28:24.891Z,55.40
2018-06-02T07:30:51.311Z,56.40
2018-06-02T07:33:18.483Z,56.90
2018-06-02T07:35:45.680Z,52.40
2018-06-02T07:38:12.136Z,52.30
2018-06-02T07:40:39.343Z,46.70
2018-06-02T07:43:05.822Z,46.60
2018-06-02T07:45:36.514Z,43.60
2018-06-02T07:48:02.987Z,43.70
2018-06-02T07:50:29.453Z,44.20
2018-06-02T07:52:55.924Z,46.00
2018-06-02T07:55:22.374Z,47.50
2018-06-02T07:57:48.892Z,48.40
2018-06-02T08:00:15.332Z,49.60
2018-06-02T08:02:42.625Z,52.10
2018-06-02T08:05:09.078Z,52.10
2018-06-02T08:07:35.527Z,53.50
2018-06-02T08:10:02.833Z,55.80
2018-06-02T08:12:30.085Z,57.00
2018-06-02T08:14:57.282Z,58.20
2018-06-02T08:17:23.816Z,58.10
2018-06-02T08:19:51.562Z,59.50
2018-06-02T08:22:18.058Z,59.50
2018-06-02T08:24:45.236Z,61.60
2018-06-02T08:27:12.409Z,62.70
2018-06-02T08:29:38.846Z,62.70
2018-06-02T08:32:06.238Z,64.70
2018-06-02T08:34:33.551Z,65.60
2018-06-02T08:36:59.975Z,65.50
2018-06-02T08:39:26.407Z,66.70
2018-06-02T08:41:53.601Z,68.40
2018-06-02T08:44:20.156Z,67.60
2018-06-02T08:46:46.647Z,68.00
2018-06-02T08:49:13.136Z,68.40
2018-06-02T08:51:39.625Z,69.50
2018-06-02T08:54:06.883Z,69.60
2018-06-02T08:56:33.311Z,69.50
2018-06-02T08:58:59.813Z,70.30
2018-06-02T09:01:27.056Z,71.00
2018-06-02T09:03:53.511Z,70.80
2018-06-02T09:06:19.951Z,71.60
2018-06-02T09:08:46.460Z,72.10
2018-06-02T09:11:12.900Z,72.30
2018-06-02T09:13:40.291Z,73.20
2018-06-02T09:16:07.517Z,73.70
2018-06-02T09:18:34.000Z,73.70
2018-06-02T09:21:00.439Z,74.50
2018-06-02T09:23:26.940Z,75.10
2018-06-02T09:25:54.463Z,76.80
2018-06-02T09:28:20.898Z,75.90
2018-06-02T09:30:47.372Z,77.30
2018-06-02T09:33:13.889Z,77.60
2018-06-02T09:35:41.161Z,79.10
2018-06-02T09:38:08.364Z,80.00
2018-06-02T09:40:34.998Z,80.00
2018-06-02T09:43:01.444Z,80.60
2018-06-02T09:45:28.727Z,82.60
2018-06-02T09:47:55.180Z,82.60
2018-06-02T09:50:22.356Z,84.10
2018-06-02T09:52:49.629Z,84.80
2018-06-02T09:55:16.794Z,85.00
2018-06-02T09:57:44.103Z,84.80
2018-06-02T10:00:10.642Z,84.70
2018-06-02T10:02:37.120Z,84.70
2018-06-02T10:05:04.577Z,85.00
2018-06-02T10:07:31.316Z,84.80
2018-06-02T10:09:58.611Z,86.50
2018-06-02T10:12:25.885Z,86.10
2018-06-02T10:14:52.363Z,86.10
2018-06-02T10:17:18.805Z,85.70
2018-06-02T10:19:45.234Z,85.30
2018-06-02T10:22:12.634Z,83.90
2018-06-02T10:24:39.092Z,83.90
2018-06-02T10:27:05.758Z,83.60
2018-06-02T10:29:32.223Z,83.00
2018-06-02T10:31:59.309Z,82.60
2018-06-02T10:34:25.843Z,82.80
2018-06-02T10:36:52.267Z,82.80
2018-06-02T10:39:18.717Z,82.80
2018-06-02T10:41:45.151Z,84.50
2018-06-02T10:44:11.600Z,83.10
2018-06-02T10:46:38.094Z,83.20
2018-06-02T10:49:05.340Z,82.00
2018-06-02T10:51:31.844Z,81.90
2018-06-02T10:53:59.045Z,82.40
2018-06-02T10:56:25.576Z,82.40
2018-06-02T10:58:52.771Z,82.70
2018-06-02T11:01:19.738Z,82.70
2018-06-02T11:03:46.276Z,82.70
2018-06-02T11:06:13.477Z,83.00
2018-06-02T11:08:39.920Z,83.00
2018-06-02T11:11:06.352Z,82.60
2018-06-02T11:13:33.522Z,82.20
2018-06-02T11:16:00.858Z,83.00
2018-06-02T11:18:27.784Z,82.90
2018-06-02T11:20:54.199Z,83.50
2018-06-02T11:23:20.592Z,83.90
2018-06-02T11:25:47.038Z,84.10
2018-06-02T11:28:14.200Z,85.60
2018-06-02T11:30:40.776Z,85.60
2018-06-02T11:33:07.945Z,85.30
2018-06-02T11:35:34.506Z,85.30
2018-06-02T11:38:01.676Z,86.00
2018-06-02T11:40:28.846Z,86.30
2018-06-02T11:42:55.316Z,86.30
2018-06-02T11:45:21.793Z,85.70
2018-06-02T11:47:48.201Z,84.80
2018-06-02T11:50:15.495Z,84.50
2018-06-02T11:52:42.876Z,84.70
2018-06-02T11:55:09.531Z,84.70
2018-06-02T11:57:36.702Z,82.50
2018-06-02T12:00:03.979Z,81.40
2018-06-02T12:02:30.451Z,81.30
2018-06-02T12:04:56.904Z,81.00
2018-06-02T12:07:24.054Z,80.40
2018-06-02T12:09:51.232Z,80.10
2018-06-02T12:12:17.705Z,80.10
2018-06-02T12:14:44.151Z,78.90
2018-06-02T12:17:10.584Z,78.70
2018-06-02T12:19:37.165Z,78.90
2018-06-02T12:22:04.354Z,78.50
2018-06-02T12:24:30.897Z,78.40
2018-06-02T12:26:58.169Z,78.20
2018-06-02T12:29:25.353Z,78.00
2018-06-02T12:31:51.906Z,78.00
2018-06-02T12:34:18.327Z,78.80
2018-06-02T12:36:45.451Z,78.60
2018-06-02T12:39:12.765Z,78.50
2018-06-02T12:41:39.139Z,78.50
2018-06-02T12:44:06.330Z,78.90
2018-06-02T12:46:33.521Z,80.00
2018-06-02T12:48:59.975Z,79.90
2018-06-02T12:51:27.237Z,80.60
2018-06-02T12:53:54.396Z,82.00
2018-06-02T12:56:21.552Z,82.10
2018-06-02T12:58:48.736Z,83.40
2018-06-02T13:01:15.956Z,84.60
2018-06-02T13:03:43.121Z,85.50
2018-06-02T13:06:09.525Z,85.40
2018-06-02T13:08:35.948Z,86.10
2018-06-02T13:11:02.662Z,86.90
2018-06-02T13:13:29.784Z,87.90
2018-06-02T13:15:56.250Z,87.80
2018-06-02T13:18:22.710Z,87.20
2018-06-02T13:20:49.160Z,86.90
2018-06-02T13:23:15.625Z,86.90
2018-06-02T13:25:42.126Z,86.60
2018-06-02T13:28:09.401Z,87.20
2018-06-02T13:30:36.801Z,87.60
2018-06-02T13:33:03.277Z,87.60
2018-06-02T13:35:29.719Z,88.00
2018-06-02T13:37:56.128Z,88.10
2018-06-02T13:40:23.314Z,89.60
2018-06-02T13:42:50.593Z,90.10
2018-06-02T13:45:18.535Z,89.50
2018-06-02T13:47:44.949Z,89.40
2018-06-02T13:50:11.429Z,88.60
2018-06-02T13:52:37.862Z,88.30
2018-06-02T13:55:04.412Z,88.10
2018-06-02T13:57:30.846Z,87.90
2018-06-02T13:59:58.058Z,87.40
2018-06-02T14:02:24.464Z,87.30
2018-06-02T14:04:50.953Z,86.90
2018-06-02T14:07:18.177Z,86.40
2018-06-02T14:09:44.619Z,86.50
2018-06-02T14:12:11.243Z,86.30
2018-06-02T14:14:37.799Z,85.70
2018-06-02T14:17:05.078Z,84.40
2018-06-02T14:19:32.351Z,84.20
2018-06-02T14:21:59.596Z,84.30
2018-06-02T14:24:26.900Z,83.30
2018-06-02T14:26:54.091Z,83.90
2018-06-02T14:29:20.525Z,83.90
2018-06-02T14:31:47.721Z,83.50
2018-06-02T14:34:14.155Z,83.50
2018-06-02T14:36:41.369Z,82.10
2018-06-02T14:39:07.946Z,82.10
2018-06-02T14:41:34.648Z,81.90
2018-06-02T14:44:01.868Z,80.70
2018-06-02T14:46:28.307Z,80.50
2018-06-02T14:48:54.751Z,80.20
2018-06-02T14:51:21.209Z,80.10
2018-06-02T14:53:47.648Z,80.50
2018-06-02T14:56:14.836Z,80.20
2018-06-02T14:58:41.302Z,80.20
2018-06-02T15:01:07.758Z,80.50
2018-06-02T15:03:34.207Z,80.60
2018-06-02T15:06:00.626Z,80.10
2018-06-02T15:08:27.103Z,80.30
2018-06-02T15:10:53.547Z,80.30
2018-06-02T15:13:20.784Z,80.60
2018-06-02T15:15:47.395Z,80.60
2018-06-02T15:18:14.548Z,79.50
2018-06-02T15:20:40.991Z,79.50
2018-06-02T15:23:07.392Z,79.70
2018-06-02T15:25:33.881Z,79.10
2018-06-02T15:28:00.272Z,79.20
2018-06-02T15:30:27.422Z,80.80
2018-06-02T15:32:53.924Z,80.50
2018-06-02T15:35:20.383Z,80.80
2018-06-02T15:37:46.801Z,81.60
2018-06-02T15:40:13.321Z,81.70
2018-06-02T15:42:39.847Z,82.30
2018-06-02T15:45:06.988Z,83.40
2018-06-02T15:47:33.446Z,83.30
2018-06-02T15:49:59.858Z,84.30
2018-06-02T15:52:26.297Z,85.20
2018-06-02T15:54:52.720Z,84.50
2018-06-02T15:57:19.137Z,84.70
2018-06-02T15:59:45.581Z,85.40
2018-06-02T16:02:12.019Z,86.00
2018-06-02T16:04:38.468Z,84.60
2018-06-02T16:07:04.940Z,83.80
2018-06-02T16:09:31.451Z,84.30
2018-06-02T16:11:57.943Z,84.80
2018-06-02T16:14:24.704Z,85.10
2018-06-02T16:16:51.894Z,85.50
2018-06-02T16:19:18.341Z,85.40
2018-06-02T16:21:44.867Z,85.90
2018-06-02T16:24:12.065Z,86.00
2018-06-02T16:26:39.337Z,86.30
2018-06-02T16:29:06.922Z,85.00
2018-06-02T16:31:33.377Z,85.00
2018-06-02T16:34:00.561Z,83.50
2018-06-02T16:36:27.012Z,83.50
2018-06-02T16:38:53.516Z,83.90
2018-06-02T16:41:19.956Z,84.20
2018-06-02T16:43:46.424Z,84.30
2018-06-02T16:46:13.036Z,84.40
2018-06-02T16:48:39.539Z,84.20
2018-06-02T16:51:05.991Z,84.90
2018-06-02T16:53:32.506Z,85.70
2018-06-02T16:55:59.733Z,87.50
2018-06-02T16:58:26.151Z,87.30
2018-06-02T17:00:52.629Z,87.80
2018-06-02T17:03:19.076Z,88.10
2018-06-02T17:05:45.523Z,88.40
2018-06-02T17:08:11.977Z,88.90
2018-06-02T17:10:38.420Z,88.50
2018-06-02T17:13:05.608Z,87.70
2018-06-02T17:15:32.071Z,87.60
2018-06-02T17:17:58.537Z,88.00
2018-06-02T17:20:24.997Z,87.90
2018-06-02T17:22:51.476Z,88.00
2018-06-02T17:25:18.511Z,88.00
2018-06-02T17:27:45.321Z,88.10
2018-06-02T17:30:12.632Z,88.50
2018-06-02T17:32:39.047Z,88.40
2018-06-02T17:35:05.537Z,88.50
2018-06-02T17:37:32.005Z,88.00
2018-06-02T17:40:00.473Z,88.00
2018-06-02T17:42:27.127Z,88.30
2018-06-02T17:44:53.616Z,89.20
2018-06-02T17:47:20.174Z,89.30
2018-06-02T17:49:46.729Z,89.80
2018-06-02T17:52:13.954Z,90.20
2018-06-02T17:54:40.392Z,90.10
2018-06-02T17:57:07.024Z,90.40
2018-06-02T17:59:33.472Z,90.60
2018-06-02T18:02:00.962Z,90.80
2018-06-02T18:04:27.402Z,90.80
2018-06-02T18:06:54.625Z,91.40
2018-06-02T18:09:21.153Z,91.30
2018-06-02T18:11:48.099Z,91.50
2018-06-02T18:14:15.296Z,91.90
2018-06-02T18:16:41.788Z,91.90
2018-06-02T18:19:08.222Z,91.80
2018-06-02T18:21:34.638Z,91.60
2018-06-02T18:24:01.095Z,91.50
2018-06-02T18:26:28.257Z,92.00
2018-06-02T18:28:54.654Z,92.00
2018-06-02T18:31:21.217Z,92.20
2018-06-02T18:33:47.631Z,92.50
2018-06-02T18:36:14.027Z,92.70
2018-06-02T18:38:40.492Z,93.00
2018-06-02T18:41:07.238Z,93.20
2018-06-02T18:43:37.059Z,93.50
2018-06-02T18:46:04.235Z,93.80
2018-06-02T18:48:30.782Z,93.80
2018-06-02T18:50:58.065Z,94.10
2018-06-02T18:53:25.252Z,94.30
2018-06-02T18:55:51.764Z,94.30
2018-06-02T18:58:18.203Z,94.40
2018-06-02T19:00:44.656Z,94.70
2018-06-02T19:03:11.072Z,94.80
2018-06-02T19:05:37.494Z,94.90
2018-06-02T19:08:03.954Z,95.10
2018-06-02T19:10:30.368Z,95.30
2018-06-02T19:12:56.889Z,95.60
2018-06-02T19:15:24.093Z,95.90
2018-06-02T19:17:50.541Z,95.90
2018-06-02T19:20:16.961Z,96.10
2018-06-02T19:22:44.252Z,96.60
2018-06-02T19:25:11.363Z,96.70
2018-06-02T19:27:37.775Z,96.70
2018-06-02T19:30:05.134Z,97.30
2018-06-02T19:32:32.258Z,97.70
2018-06-02T19:34:58.663Z,97.40
2018-06-02T19:37:25.851Z,97.70
2018-06-02T19:39:53.000Z,97.80
2018-06-02T19:42:19.436Z,97.80
2018-06-02T19:44:45.908Z,98.10
2018-06-02T19:47:12.339Z,98.30
2018-06-02T19:49:38.782Z,98.60
2018-06-02T19:52:05.243Z,98.70
2018-06-02T19:54:32.278Z,98.80
2018-06-02T19:56:58.831Z,99.00
2018-06-02T19:59:26.105Z,99.10
2018-06-02T20:01:53.382Z,99.20
2018-06-02T20:04:20.655Z,99.30
2018-06-02T20:06:47.127Z,99.30
2018-06-02T20:09:14.049Z,99.40
2018-06-02T20:11:40.503Z,99.50
2018-06-02T20:14:07.097Z,99.60
2018-06-02T20:16:33.597Z,99.70
2018-06-02T20:19:00.067Z,99.70
2018-06-02T20:21:26.670Z,99.90
2018-06-02T20:23:53.826Z,99.80
2018-06-02T20:26:21.060Z,99.90
2018-06-02T20:28:47.674Z,99.80
2018-06-02T20:31:14.874Z,99.90
2018-06-02T20:33:41.367Z,99.90
2018-06-02T20:36:07.831Z,99.90
2018-06-02T20:38:34.289Z,99.90
2018-06-02T20:41:00.777Z,99.90
2018-06-02T20:43:27.195Z,99.90
2018-06-02T20:45:53.639Z,99.90
2018-06-02T20:48:20.129Z,99.90
2018-06-02T20:50:47.420Z,99.90
2018-06-02T20:53:13.924Z,99.90
2018-06-02T20:55:40.637Z,99.90
2018-06-02T20:58:07.823Z,99.90
2018-06-02T21:00:34.578Z,99.90
2018-06-02T21:03:01.031Z,99.90
2018-06-02T21:05:28.920Z,99.90
2018-06-02T21:07:55.583Z,99.90
2018-06-02T21:10:22.735Z,99.90
2018-06-02T21:12:49.927Z,99.90
2018-06-02T21:15:16.398Z,99.90
2018-06-02T21:17:43.158Z,99.90
2018-06-02T21:20:09.588Z,99.90
2018-06-02T21:22:36.948Z,99.90
2018-06-02T21:29:36.681Z,99.90
2018-06-02T21:34:33.074Z,99.90
2018-06-02T21:37:01.553Z,99.90
2018-06-02T21:39:29.783Z,99.90
2018-06-02T21:44:26.290Z,99.90
2018-06-02T21:46:55.084Z,99.90
2018-06-02T21:51:51.288Z,99.90
2018-06-02T21:54:19.369Z,99.90
2018-06-02T21:56:47.778Z,99.90
2018-06-02T21:59:16.269Z,99.90
2018-06-02T22:01:45.397Z,99.90
2018-06-02T22:04:13.661Z,99.90
2018-06-02T22:06:42.298Z,99.90
2018-06-02T22:09:10.574Z,99.90
2018-06-02T22:11:39.099Z,99.90
2018-06-02T22:14:07.601Z,99.90
2018-06-02T22:16:35.873Z,99.90
2018-06-02T22:19:04.187Z,99.90
2018-06-02T22:24:00.581Z,99.90
2018-06-02T22:26:28.864Z,99.90
2018-06-02T22:28:57.084Z,99.90
2018-06-02T22:31:25.458Z,99.90
2018-06-02T22:33:53.882Z,99.90
2018-06-02T22:36:22.241Z,99.90
2018-06-02T22:38:50.755Z,99.90
2018-06-02T22:41:19.075Z,99.90
2018-06-02T22:43:47.367Z,99.90
2018-06-02T22:48:43.765Z,99.90
2018-06-02T22:51:12.278Z,99.90
2018-06-02T22:53:40.747Z,99.90
2018-06-02T22:56:09.312Z,99.90
2018-06-02T22:58:37.829Z,99.90
2018-06-02T23:01:07.100Z,99.90
2018-06-02T23:03:35.418Z,99.90
2018-06-02T23:06:03.673Z,99.90
2018-06-02T23:11:00.470Z,99.90
2018-06-02T23:15:57.056Z,99.90
2018-06-02T23:18:25.582Z,99.90
2018-06-02T23:20:53.988Z,99.90
2018-06-02T23:23:22.385Z,99.90
2018-06-02T23:25:50.906Z,99.90
2018-06-02T23:28:19.193Z,99.90
2018-06-02T23:30:48.532Z,99.90
2018-06-02T23:33:16.993Z,99.90
2018-06-02T23:35:45.412Z,99.90
2018-06-02T23:38:14.047Z,99.90
2018-06-02T23:40:43.305Z,99.90
2018-06-02T23:43:11.827Z,99.90
2018-06-02T23:45:40.214Z,99.90
2018-06-02T23:53:06.427Z,99.90
2018-06-02T23:55:34.829Z,99.90
